Time;durP1;ratioP1;P1;durP2;ratioP2;P2;SDS_P1;SDS_P2;PMS_P1;PMS_P2;Temp;Humidity;BMP_temperature;BMP_pressure;BME280_temperature;BME280_humidity;BME280_pressure;Samples;Min_cycle;Max_cycle;Signal;HPM_P1;HPM_P2
2023/04/23 00:01:52;;;;;;;;;;;;;;;14.40;44.18;100210.84;5449208;32;34754;-70
2023/04/23 00:04:54;;;;;;;;;;;;;;;14.54;43.66;100205.66;5434517;32;36008;-71
2023/04/23 00:07:56;;;;;;;;;;;;;;;14.73;43.45;100207.22;5432026;32;36854;-70
2023/04/23 00:10:58;;;;;;;;;;;;;;;14.57;44.09;100194.06;5438060;32;35046;-61
2023/04/23 00:14:00;;;;;;;;;;;;;;;14.78;43.86;100205.16;5442109;32;34438;-70
2023/04/23 00:17:02;;;;;;;;;;;;;;;15.60;41.78;100188.66;5442797;32;35794;-67
2023/04/23 00:20:05;;;;;;;;;;;;;;;14.76;43.33;100196.47;5440575;32;34340;-69
2023/04/23 00:23:07;;;;;;;;;;;;;;;14.72;44.04;100190.50;5446379;32;34648;-60
2023/04/23 00:26:09;;;;;;;;;;;;;;;15.25;43.16;100194.34;5421058;32;34689;-61
2023/04/23 00:29:11;;;;;;;;;;;;;;;15.56;42.82;100197.75;5445461;32;45039;-71
2023/04/23 00:32:13;;;;;;;;;;;;;;;14.58;45.34;100193.09;5426709;32;34923;-70
2023/04/23 00:35:15;;;;;;;;;;;;;;;14.33;46.29;100194.50;5448435;32;35136;-61
2023/04/23 00:38:19;;;;;;;;;;;;;;;14.10;47.25;100197.59;5442391;32;34783;-68
2023/04/23 00:41:22;;;;;;;;;;;;;;;14.47;46.21;100193.72;5422956;32;35182;-69
2023/04/23 00:44:24;;;;;;;;;;;;;;;14.35;46.34;100195.25;5443955;32;34234;-70
2023/04/23 00:47:25;;;;;;;;;;;;;;;14.35;46.49;100192.59;5438569;32;35398;-62
2023/04/23 00:50:27;;;;;;;;;;;;;;;14.95;45.02;100194.44;5434902;32;36312;-62
2023/04/23 00:53:29;;;;;;;;;;;;;;;15.39;43.85;100190.81;5438802;32;35505;-63
2023/04/23 00:56:31;;;;;;;;;;;;;;;14.66;45.66;100192.66;5449331;32;34928;-68
2023/04/23 00:59:33;;;;;;;;;;;;;;;14.85;45.52;100191.47;5442794;32;35430;-71
2023/04/23 01:02:35;;;;;;;;;;;;;;;14.30;46.66;100180.63;5440103;32;35352;-63
2023/04/23 01:05:38;;;;;;;;;;;;;;;14.31;46.91;100184.97;5434175;32;34785;-69
2023/04/23 01:08:42;;;;;;;;;;;;;;;14.34;47.02;100185.63;5418264;32;37496;-61
2023/04/23 01:11:44;;;;;;;;;;;;;;;14.39;46.63;100184.50;5447736;32;34956;-70
2023/04/23 01:14:46;;;;;;;;;;;;;;;14.83;45.30;100181.94;5438278;32;33844;-71
2023/04/23 01:17:48;;;;;;;;;;;;;;;14.07;46.47;100177.47;5447496;32;32854;-61
2023/04/23 01:20:50;;;;;;;;;;;;;;;13.99;47.50;100187.66;5444219;32;34831;-69
2023/04/23 01:23:52;;;;;;;;;;;;;;;14.68;45.64;100183.66;5438398;32;36009;-61
2023/04/23 01:26:54;;;;;;;;;;;;;;;14.61;46.04;100188.47;5450955;32;36498;-70
2023/04/23 01:29:56;;;;;;;;;;;;;;;13.89;47.73;100189.09;5426617;32;34555;-70
2023/04/23 01:32:58;;;;;;;;;;;;;;;13.52;48.90;100184.97;5428094;32;34175;-69
2023/04/23 01:35:59;;;;;;;;;;;;;;;13.47;49.67;100193.16;5440975;32;35443;-62
2023/04/23 01:39:02;;;;;;;;;;;;;;;13.59;49.10;100185.50;5446559;32;35346;-70
2023/04/23 01:42:05;;;;;;;;;;;;;;;13.28;50.25;100181.88;5430124;32;34921;-69
2023/04/23 01:45:08;;;;;;;;;;;;;;;13.08;51.53;100188.19;5439726;32;35092;-70
2023/04/23 01:48:10;;;;;;;;;;;;;;;12.55;53.02;100193.56;5449177;32;44673;-68
2023/04/23 01:51:12;;;;;;;;;;;;;;;12.61;52.78;100174.81;5432340;32;35266;-69
2023/04/23 01:54:14;;;;;;;;;;;;;;;13.02;52.06;100183.22;5449322;32;36087;-62
2023/04/23 01:57:22;;;;;;;;;;;;;;;12.61;53.18;100191.47;5437232;32;33845;-61
2023/04/23 02:00:24;;;;;;;;;;;;;;;12.50;53.68;100185.91;5415549;32;34297;-70
2023/04/23 02:03:29;;;;;;;;;;;;;;;12.61;53.63;100187.97;5446884;32;34370;-68
2023/04/23 02:06:31;;;;;;;;;;;;;;;12.59;53.24;100190.69;5436758;32;35068;-63
2023/04/23 02:09:33;;;;;;;;;;;;;;;12.66;53.63;100183.34;5450100;32;35683;-69
2023/04/23 02:12:36;;;;;;;;;;;;;;;12.76;53.26;100174.03;5439617;32;35022;-61
2023/04/23 02:15:39;;;;;;;;;;;;;;;13.49;51.39;100175.44;5436811;32;33942;-69
2023/04/23 02:18:41;;;;;;;;;;;;;;;13.30;51.75;100181.78;5419217;32;46460;-62
2023/04/23 02:21:43;;;;;;;;;;;;;;;13.88;50.17;100176.81;5439198;32;34713;-61
2023/04/23 02:24:46;;;;;;;;;;;;;;;13.20;51.06;100169.09;5433876;32;34997;-68
2023/04/23 02:27:48;;;;;;;;;;;;;;;12.79;53.03;100165.09;5439474;32;34651;-69
2023/04/23 02:30:50;;;;;;;;;;;;;;;12.39;54.23;100180.31;5430637;32;35387;-70
2023/04/23 02:33:52;;;;;;;;;;;;;;;12.40;54.70;100166.19;5417603;32;34847;-69
2023/04/23 02:36:54;;;;;;;;;;;;;;;13.17;52.62;100169.22;5446285;32;35368;-69
2023/04/23 02:39:55;;;;;;;;;;;;;;;13.18;52.47;100170.06;5427119;32;35407;-61
2023/04/23 02:42:57;;;;;;;;;;;;;;;12.72;53.13;100175.13;5441894;32;34852;-70
2023/04/23 02:46:06;;;;;;;;;;;;;;;12.43;54.48;100173.97;5449280;32;36238;-68
2023/04/23 02:49:08;;;;;;;;;;;;;;;13.24;51.61;100169.78;5414801;32;35256;-60
2023/04/23 02:52:10;;;;;;;;;;;;;;;12.85;53.31;100163.00;5441091;32;37214;-60
2023/04/23 02:55:12;;;;;;;;;;;;;;;12.56;54.33;100174.16;5439886;32;34665;-70
2023/04/23 02:58:14;;;;;;;;;;;;;;;12.38;55.44;100174.19;5448168;32;32796;-69
2023/04/23 03:01:16;;;;;;;;;;;;;;;12.13;56.02;100169.28;5441272;32;35424;-60
2023/04/23 03:04:19;;;;;;;;;;;;;;;11.69;57.35;100167.88;5438978;32;35881;-70
2023/04/23 03:07:21;;;;;;;;;;;;;;;11.55;57.88;100164.12;5446637;32;35160;-61
2023/04/23 03:10:23;;;;;;;;;;;;;;;12.76;54.16;100160.84;5438837;32;34792;-62
2023/04/23 03:13:25;;;;;;;;;;;;;;;13.13;52.80;100150.97;5430770;32;34928;-61
2023/04/23 03:16:27;;;;;;;;;;;;;;;13.08;52.77;100156.53;5439263;32;35383;-61
2023/04/23 03:19:29;;;;;;;;;;;;;;;12.92;53.33;100158.25;5447422;32;34772;-70
2023/04/23 03:22:31;;;;;;;;;;;;;;;12.84;53.94;100161.28;5419280;32;34677;-70
2023/04/23 03:25:33;;;;;;;;;;;;;;;12.56;54.50;100166.25;5438192;32;34979;-61
2023/04/23 03:28:35;;;;;;;;;;;;;;;12.00;56.39;100162.03;5449129;32;35380;-71
2023/04/23 03:31:37;;;;;;;;;;;;;;;11.85;56.98;100148.69;5418187;32;35266;-64
2023/04/23 03:34:39;;;;;;;;;;;;;;;12.35;55.85;100170.84;5428942;32;35129;-63
2023/04/23 03:37:41;;;;;;;;;;;;;;;12.96;53.49;100152.75;5437681;32;44944;-68
2023/04/23 03:40:44;;;;;;;;;;;;;;;13.27;52.19;100164.34;5432675;32;34557;-71
2023/04/23 03:43:46;;;;;;;;;;;;;;;12.82;53.28;100157.91;5426317;32;35783;-71
2023/04/23 03:46:47;;;;;;;;;;;;;;;13.04;52.53;100156.75;5437729;32;35086;-62
2023/04/23 03:49:49;;;;;;;;;;;;;;;12.50;53.48;100171.88;5448863;32;34599;-61
2023/04/23 03:52:51;;;;;;;;;;;;;;;12.02;55.56;100170.72;5409702;32;35476;-69
2023/04/23 03:55:53;;;;;;;;;;;;;;;11.62;56.76;100177.84;5437388;32;35682;-61
2023/04/23 03:58:55;;;;;;;;;;;;;;;11.45;57.94;100168.09;5440843;32;37017;-69
2023/04/23 04:01:57;;;;;;;;;;;;;;;11.34;57.77;100151.97;5449718;32;34351;-68
2023/04/23 04:05:00;;;;;;;;;;;;;;;11.51;57.82;100174.84;5442165;32;34778;-62
2023/04/23 04:08:03;;;;;;;;;;;;;;;11.82;56.43;100180.41;5436783;32;34238;-69
2023/04/23 04:11:05;;;;;;;;;;;;;;;11.35;57.87;100183.47;5452243;32;34028;-69
2023/04/23 04:14:07;;;;;;;;;;;;;;;11.24;58.24;100183.09;5440458;32;34977;-60
2023/04/23 04:17:11;;;;;;;;;;;;;;;11.80;56.54;100184.88;5451687;32;35190;-69
2023/04/23 04:20:13;;;;;;;;;;;;;;;11.92;56.77;100189.59;5440798;32;46826;-71
2023/04/23 04:23:15;;;;;;;;;;;;;;;12.90;53.15;100160.97;5437164;32;35393;-62
2023/04/23 04:26:17;;;;;;;;;;;;;;;12.80;52.94;100190.53;5444428;32;35215;-62
2023/04/23 04:29:20;;;;;;;;;;;;;;;11.75;56.22;100191.28;5433339;32;33920;-71
2023/04/23 04:32:22;;;;;;;;;;;;;;;11.35;57.90;100186.09;5438722;32;36291;-71
2023/04/23 04:35:24;;;;;;;;;;;;;;;11.47;57.42;100192.56;5426740;32;34749;-69
2023/04/23 04:38:27;;;;;;;;;;;;;;;11.93;55.99;100199.22;5450559;32;35581;-70
2023/04/23 04:41:29;;;;;;;;;;;;;;;12.35;55.05;100200.69;5441829;32;34915;-69
2023/04/23 04:44:31;;;;;;;;;;;;;;;11.89;56.27;100196.78;5440784;32;35586;-70
2023/04/23 04:47:33;;;;;;;;;;;;;;;12.54;54.82;100189.22;5433122;32;36952;-69
2023/04/23 04:50:35;;;;;;;;;;;;;;;12.76;54.03;100199.56;5437206;32;34410;-68
2023/04/23 04:53:37;;;;;;;;;;;;;;;14.05;50.29;100197.88;5445409;32;35442;-62
2023/04/23 04:56:41;;;;;;;;;;;;;;;14.52;48.43;100201.41;5440052;32;45041;-61
2023/04/23 04:59:43;;;;;;;;;;;;;;;13.87;49.77;100204.19;5450853;32;35056;-62
2023/04/23 05:02:46;;;;;;;;;;;;;;;13.74;50.52;100200.50;5440635;32;35013;-69
2023/04/23 05:05:48;;;;;;;;;;;;;;;13.61;50.77;100202.97;5430119;32;34286;-61
2023/04/23 05:08:50;;;;;;;;;;;;;;;14.49;48.44;100197.16;5446199;32;35649;-67
2023/04/23 05:11:51;;;;;;;;;;;;;;;15.27;46.42;100196.91;5439837;32;36252;-70
2023/04/23 05:14:53;;;;;;;;;;;;;;;16.36;43.92;100198.78;5451279;32;36682;-70
2023/04/23 05:17:55;;;;;;;;;;;;;;;16.46;43.39;100202.53;5440456;32;35041;-62
2023/04/23 05:20:57;;;;;;;;;;;;;;;16.07;43.92;100201.53;5449800;32;35646;-61
2023/04/23 05:23:59;;;;;;;;;;;;;;;17.61;40.99;100195.50;5436293;32;34819;-69
2023/04/23 05:27:01;;;;;;;;;;;;;;;17.55;40.76;100196.78;5444799;32;34543;-69
2023/04/23 05:30:04;;;;;;;;;;;;;;;17.40;40.78;100197.88;5433017;32;34870;-61
2023/04/23 05:33:06;;;;;;;;;;;;;;;18.02;38.84;100194.34;5417593;32;35023;-68
2023/04/23 05:36:08;;;;;;;;;;;;;;;16.74;41.10;100193.59;5451012;32;35427;-70
2023/04/23 05:39:10;;;;;;;;;;;;;;;16.78;40.16;100189.78;5439772;32;34439;-62
2023/04/23 05:42:12;;;;;;;;;;;;;;;18.41;37.04;100191.41;5449193;32;45411;-70
2023/04/23 05:45:14;;;;;;;;;;;;;;;18.46;35.99;100188.41;5441316;32;37184;-63
2023/04/23 05:48:16;;;;;;;;;;;;;;;17.73;37.39;100189.34;5440661;32;34357;-70
2023/04/23 05:51:18;;;;;;;;;;;;;;;18.50;35.77;100194.38;5443699;32;35473;-69
2023/04/23 05:54:20;;;;;;;;;;;;;;;18.48;35.93;100190.94;5434746;32;34018;-71
2023/04/23 05:57:22;;;;;;;;;;;;;;;19.68;33.86;100186.94;5449987;32;34707;-63
2023/04/23 06:00:24;;;;;;;;;;;;;;;20.23;33.08;100192.31;5441191;32;35509;-71
2023/04/23 06:03:26;;;;;;;;;;;;;;;19.39;34.12;100197.25;5449302;32;35077;-68
2023/04/23 06:06:28;;;;;;;;;;;;;;;18.48;35.89;100181.16;5439131;32;34408;-69
2023/04/23 06:09:30;;;;;;;;;;;;;;;18.30;35.75;100204.69;5442240;32;35305;-61
2023/04/23 06:12:32;;;;;;;;;;;;;;;19.28;33.75;100196.37;5446588;32;34997;-63
2023/04/23 06:15:34;;;;;;;;;;;;;;;19.45;33.25;100196.75;5425359;32;34919;-62
2023/04/23 06:18:36;;;;;;;;;;;;;;;19.21;33.67;100196.03;5449871;32;34674;-62
2023/04/23 06:21:38;;;;;;;;;;;;;;;20.37;30.60;100197.34;5432733;32;35572;-69
2023/04/23 06:24:40;;;;;;;;;;;;;;;20.08;32.11;100196.22;5449586;32;43900;-69
2023/04/23 06:27:43;;;;;;;;;;;;;;;21.08;29.98;100208.31;5441024;32;35371;-70
2023/04/23 06:30:45;;;;;;;;;;;;;;;21.20;29.53;100196.56;5423940;32;34232;-62
2023/04/23 06:33:47;;;;;;;;;;;;;;;21.35;28.88;100197.09;5431509;32;34962;-70
2023/04/23 06:36:49;;;;;;;;;;;;;;;21.06;29.41;100199.59;5439144;32;34381;-62
2023/04/23 06:39:51;;;;;;;;;;;;;;;20.71;29.55;100202.56;5435887;32;34816;-70
2023/04/23 06:42:53;;;;;;;;;;;;;;;20.29;30.86;100210.50;5439978;32;34749;-64
2023/04/23 06:45:55;;;;;;;;;;;;;;;23.75;25.62;100194.56;5434084;32;35483;-62
2023/04/23 06:48:57;;;;;;;;;;;;;;;23.96;24.62;100193.50;5437792;32;35542;-63
2023/04/23 06:51:59;;;;;;;;;;;;;;;22.66;26.36;100197.78;5437327;32;34895;-61
2023/04/23 06:55:01;;;;;;;;;;;;;;;23.52;25.34;100190.56;5446181;32;35556;-71
2023/04/23 06:58:05;;;;;;;;;;;;;;;24.20;24.78;100195.56;5438115;32;35365;-72
2023/04/23 07:01:09;;;;;;;;;;;;;;;24.28;24.62;100198.34;5449670;32;35388;-62
2023/04/23 07:04:11;;;;;;;;;;;;;;;23.31;25.78;100196.13;5439166;32;44739;-64
2023/04/23 07:07:13;;;;;;;;;;;;;;;21.96;28.27;100193.47;5442136;32;35160;-61
2023/04/23 07:10:15;;;;;;;;;;;;;;;25.22;23.70;100192.44;5423739;32;35026;-63
2023/04/23 07:13:18;;;;;;;;;;;;;;;22.70;27.04;100191.16;5439534;32;33949;-70
2023/04/23 07:16:21;;;;;;;;;;;;;;;22.47;27.29;100174.53;5448379;32;35224;-71
2023/04/23 07:19:23;;;;;;;;;;;;;;;23.74;25.28;100186.69;5439812;32;34468;-70
2023/04/23 07:22:25;;;;;;;;;;;;;;;24.75;23.73;100179.31;5448077;32;35131;-63
2023/04/23 07:25:30;;;;;;;;;;;;;;;24.70;23.65;100181.62;5443103;32;34718;-62
2023/04/23 07:28:32;;;;;;;;;;;;;;;26.36;21.49;100174.03;5448485;32;34370;-63
2023/04/23 07:31:33;;;;;;;;;;;;;;;26.24;21.58;100172.66;5423191;32;34857;-72
2023/04/23 07:34:36;;;;;;;;;;;;;;;26.42;20.90;100170.72;5441113;32;35506;-71
2023/04/23 07:37:38;;;;;;;;;;;;;;;26.29;21.13;100168.47;5450868;32;35661;-71
2023/04/23 07:40:40;;;;;;;;;;;;;;;26.43;20.20;100167.84;5441154;32;44202;-70
2023/04/23 07:43:42;;;;;;;;;;;;;;;26.40;20.02;100168.16;5450625;32;34372;-62
2023/04/23 07:46:44;;;;;;;;;;;;;;;28.77;17.67;100164.56;5441469;32;35198;-72
2023/04/23 07:49:46;;;;;;;;;;;;;;;26.87;19.12;100162.09;5447168;32;35418;-63
2023/04/23 07:52:48;;;;;;;;;;;;;;;28.47;17.20;100167.19;5435693;32;35929;-71
2023/04/23 07:55:50;;;;;;;;;;;;;;;29.27;16.35;100166.63;5441570;32;35387;-71
2023/04/23 07:58:52;;;;;;;;;;;;;;;28.49;16.92;100159.72;5450878;32;34544;-72
2023/04/23 08:01:55;;;;;;;;;;;;;;;28.24;16.70;100159.03;5440703;32;34969;-63
2023/04/23 08:04:56;;;;;;;;;;;;;;;29.10;15.83;100165.09;5449800;32;34614;-64
2023/04/23 08:07:59;;;;;;;;;;;;;;;28.51;16.62;100160.38;5416907;32;34383;-71
2023/04/23 08:11:00;;;;;;;;;;;;;;;27.00;17.79;100157.00;5449486;32;35435;-69
2023/04/23 08:14:02;;;;;;;;;;;;;;;28.85;16.20;100156.34;5443988;32;35369;-62
2023/04/23 08:17:04;;;;;;;;;;;;;;;27.59;17.32;100148.59;5418914;32;34513;-63
2023/04/23 08:20:07;;;;;;;;;;;;;;;28.90;16.46;100158.53;5432359;32;34430;-63
2023/04/23 08:23:09;;;;;;;;;;;;;;;29.19;15.85;100157.75;5418225;32;35052;-63
2023/04/23 08:26:11;;;;;;;;;;;;;;;29.94;15.41;100152.06;5432332;32;45139;-71
2023/04/23 08:29:13;;;;;;;;;;;;;;;29.04;15.98;100153.16;5415493;32;34608;-63
2023/04/23 08:32:15;;;;;;;;;;;;;;;29.40;16.12;100150.56;5414186;32;34797;-62
2023/04/23 08:35:17;;;;;;;;;;;;;;;28.47;17.23;100150.13;5428818;32;34879;-63
2023/04/23 08:38:19;;;;;;;;;;;;;;;28.49;16.92;100148.09;5439799;32;34923;-64
2023/04/23 08:41:21;;;;;;;;;;;;;;;28.22;17.47;100152.16;5436339;32;34291;-72
2023/04/23 08:44:24;;;;;;;;;;;;;;;27.44;17.88;100144.97;5439932;32;34657;-72
2023/04/23 08:47:26;;;;;;;;;;;;;;;29.79;15.80;100137.72;5419836;32;34870;-72
2023/04/23 08:50:28;;;;;;;;;;;;;;;31.27;14.19;100118.84;5439332;32;34887;-64
2023/04/23 08:53:31;;;;;;;;;;;;;;;30.63;14.68;100121.69;5445989;32;34740;-72
2023/04/23 08:56:34;;;;;;;;;;;;;;;28.83;16.46;100129.50;5443404;32;35080;-63
2023/04/23 08:59:36;;;;;;;;;;;;;;;29.93;16.07;100128.72;5425108;32;35520;-72
2023/04/23 09:02:39;;;;;;;;;;;;;;;29.22;16.71;100133.00;5450122;32;34743;-71
2023/04/23 09:05:41;;;;;;;;;;;;;;;27.21;18.76;100128.66;5417248;32;43340;-72
2023/04/23 09:08:43;;;;;;;;;;;;;;;28.40;17.38;100130.22;5423031;32;35259;-63
2023/04/23 09:11:45;;;;;;;;;;;;;;;30.54;15.02;100120.19;5435582;32;35907;-64
2023/04/23 09:14:48;;;;;;;;;;;;;;;29.35;15.97;100115.09;5447764;32;34568;-71
2023/04/23 09:17:50;;;;;;;;;;;;;;;32.29;13.52;100105.19;5443530;32;33656;-64
2023/04/23 09:20:52;;;;;;;;;;;;;;;29.17;16.16;100117.31;5440033;32;34784;-63
2023/04/23 09:23:54;;;;;;;;;;;;;;;28.93;16.52;100115.75;5431987;32;34612;-62
2023/04/23 09:26:57;;;;;;;;;;;;;;;30.83;14.86;100109.16;5437512;32;36069;-73
2023/04/23 09:30:02;;;;;;;;;;;;;;;30.02;15.63;100096.94;5416709;32;35136;-72
2023/04/23 09:33:04;;;;;;;;;;;;;;;31.40;14.33;100096.34;5435962;32;35371;-72
2023/04/23 09:36:10;;;;;;;;;;;;;;;29.46;15.49;100111.06;5445119;32;35028;-63
2023/04/23 09:39:13;;;;;;;;;;;;;;;28.35;16.59;100095.66;5446680;32;45406;-71
2023/04/23 09:42:15;;;;;;;;;;;;;;;28.70;16.50;100112.22;5440332;32;35100;-70
2023/04/23 09:45:18;;;;;;;;;;;;;;;28.85;16.16;100086.91;5430855;32;35678;-65
2023/04/23 09:48:20;;;;;;;;;;;;;;;28.90;15.82;100104.41;5423873;32;36122;-63
2023/04/23 09:51:24;;;;;;;;;;;;;;;28.62;16.24;100101.50;5440465;32;35517;-73
2023/04/23 09:54:26;;;;;;;;;;;;;;;29.45;15.63;100090.44;5435950;32;34941;-70
2023/04/23 09:57:27;;;;;;;;;;;;;;;29.51;15.07;100087.00;5427181;32;34591;-61
2023/04/23 10:00:33;;;;;;;;;;;;;;;29.51;15.64;100084.31;5433599;32;35677;-71
2023/04/23 10:03:35;;;;;;;;;;;;;;;30.10;15.07;100086.00;5439847;32;35394;-63
2023/04/23 10:06:41;;;;;;;;;;;;;;;29.37;15.28;100080.56;5426321;32;43757;-63
2023/04/23 10:10:03;;;;;;;;;;;;;;;29.19;14.62;100074.69;5440946;32;36546;-71
2023/04/23 10:13:05;;;;;;;;;;;;;;;30.29;14.13;100060.13;5430152;32;35314;-62
2023/04/23 10:16:07;;;;;;;;;;;;;;;28.93;15.21;100056.25;5428589;32;36398;-62
2023/04/23 10:19:23;;;;;;;;;;;;;;;30.04;14.71;100065.91;5435341;32;35039;-70
2023/04/23 10:22:26;;;;;;;;;;;;;;;31.51;13.47;100052.31;5435839;32;35685;-73
2023/04/23 10:25:28;;;;;;;;;;;;;;;30.85;13.54;100060.97;5436097;32;36748;-62
2023/04/23 10:28:30;;;;;;;;;;;;;;;29.16;14.80;100058.00;5442654;32;35086;-64
2023/04/23 10:31:32;;;;;;;;;;;;;;;27.82;16.26;100050.63;5406677;32;34902;-62
2023/04/23 10:34:34;;;;;;;;;;;;;;;30.09;13.18;100049.91;5428116;32;35384;-71
2023/04/23 10:37:36;;;;;;;;;;;;;;;31.84;12.42;100057.03;5426489;32;34882;-63
2023/04/23 10:40:38;;;;;;;;;;;;;;;31.68;12.55;100045.44;5425950;32;35596;-62
2023/04/23 10:43:40;;;;;;;;;;;;;;;29.35;13.94;100049.28;5432880;32;43580;-63
2023/04/23 10:46:53;;;;;;;;;;;;;;;28.62;15.08;100053.69;5439373;32;34872;-70
2023/04/23 10:49:55;;;;;;;;;;;;;;;29.40;13.20;100050.41;5431313;32;34527;-62
2023/04/23 10:52:57;;;;;;;;;;;;;;;31.08;12.25;100040.84;5429441;32;34930;-63
2023/04/23 10:56:06;;;;;;;;;;;;;;;32.13;11.76;100028.62;5439922;32;35281;-62
2023/04/23 10:59:17;;;;;;;;;;;;;;;32.00;11.36;100030.28;5449302;32;34776;-71
2023/04/23 11:02:19;;;;;;;;;;;;;;;30.56;12.54;100031.31;5439728;32;44481;-63
2023/04/23 11:05:22;;;;;;;;;;;;;;;31.72;12.09;100027.72;5444841;32;34975;-64
2023/04/23 11:08:24;;;;;;;;;;;;;;;30.70;13.08;100025.81;5435642;32;34554;-68
2023/04/23 11:11:46;;;;;;;;;;;;;;;31.63;12.38;100026.25;5445386;32;34609;-72
2023/04/23 11:14:49;;;;;;;;;;;;;;;29.74;13.68;100023.72;5444895;32;47675;-71
2023/04/23 11:17:51;;;;;;;;;;;;;;;28.03;15.22;100026.50;5439394;32;34530;-63
2023/04/23 11:20:55;;;;;;;;;;;;;;;30.22;13.25;100019.41;5448121;32;35699;-65
2023/04/23 11:24:00;;;;;;;;;;;;;;;32.50;11.46;100013.56;5440171;32;35294;-64
2023/04/23 11:27:05;;;;;;;;;;;;;;;33.77;10.52;100010.16;5447046;32;35986;-62
2023/04/23 11:30:17;;;;;;;;;;;;;;;35.09;9.62;100013.56;5427017;32;34496;-71
2023/04/23 11:33:19;;;;;;;;;;;;;;;31.48;12.04;100010.09;5433440;32;45039;-61
2023/04/23 11:36:21;;;;;;;;;;;;;;;34.14;10.33;100000.25;5433353;32;34504;-70
2023/04/23 11:39:23;;;;;;;;;;;;;;;34.44;10.09;100000.41;5424772;32;35145;-71
2023/04/23 11:42:27;;;;;;;;;;;;;;;33.12;11.29;100004.00;5447371;32;34944;-71
2023/04/23 11:45:29;;;;;;;;;;;;;;;34.93;9.77;100001.38;5440658;32;34277;-71
2023/04/23 11:48:31;;;;;;;;;;;;;;;33.14;10.72;99994.56;5442138;32;35890;-63
2023/04/23 11:51:34;;;;;;;;;;;;;;;33.08;10.51;100000.88;5419956;32;36861;-72
2023/04/23 11:54:36;;;;;;;;;;;;;;;30.40;12.85;100003.50;5421025;32;35174;-71
2023/04/23 11:57:41;;;;;;;;;;;;;;;30.54;13.02;99984.59;5432576;32;35966;-70
2023/04/23 12:00:43;;;;;;;;;;;;;;;34.44;10.53;99961.38;5425729;32;45690;-63
2023/04/23 12:03:47;;;;;;;;;;;;;;;33.96;11.16;99964.75;5446912;32;34395;-73
2023/04/23 12:06:50;;;;;;;;;;;;;;;35.83;9.70;99967.78;5435841;32;34881;-64
2023/04/23 12:09:52;;;;;;;;;;;;;;;32.36;12.03;99980.13;5429386;32;34193;-71
2023/04/23 12:12:53;;;;;;;;;;;;;;;33.49;11.27;99969.69;5432719;32;35254;-72
2023/04/23 12:15:56;;;;;;;;;;;;;;;32.71;11.96;99966.22;5442147;32;35495;-70
2023/04/23 12:18:59;;;;;;;;;;;;;;;35.21;10.34;99953.53;5435666;32;34185;-62
2023/04/23 12:22:02;;;;;;;;;;;;;;;35.10;10.16;99954.31;5441618;32;35461;-71
2023/04/23 12:25:07;;;;;;;;;;;;;;;34.23;10.62;99957.16;5449502;32;35632;-71
2023/04/23 12:28:09;;;;;;;;;;;;;;;35.10;10.23;99954.31;5441684;32;35253;-71
2023/04/23 12:31:17;;;;;;;;;;;;;;;34.51;10.55;99945.78;5422644;32;44949;-62
2023/04/23 12:34:20;;;;;;;;;;;;;;;33.70;11.43;99943.97;5450083;32;34635;-62
2023/04/23 12:37:28;;;;;;;;;;;;;;;33.64;11.40;99945.69;5427166;32;34938;-72
2023/04/23 12:40:30;;;;;;;;;;;;;;;34.14;11.01;99947.63;5443810;32;34756;-64
2023/04/23 12:43:32;;;;;;;;;;;;;;;33.05;11.57;99940.59;5441336;32;34692;-73
2023/04/23 12:46:34;;;;;;;;;;;;;;;32.43;12.33;99933.88;5448057;32;33818;-62
2023/04/23 12:49:37;;;;;;;;;;;;;;;32.55;11.84;99926.72;5440758;32;34824;-62
2023/04/23 12:52:40;;;;;;;;;;;;;;;29.97;14.02;99939.53;5428256;32;35441;-61
2023/04/23 12:55:44;;;;;;;;;;;;;;;29.17;14.34;99929.78;5450586;32;44679;-70
2023/04/23 12:58:46;;;;;;;;;;;;;;;28.16;15.30;99939.44;5440932;32;34982;-70
2023/04/23 13:01:49;;;;;;;;;;;;;;;27.22;15.98;99941.50;5449336;32;34394;-63
2023/04/23 13:04:53;;;;;;;;;;;;;;;27.46;15.68;99941.34;5439084;32;35235;-69
2023/04/23 13:07:55;;;;;;;;;;;;;;;25.98;17.36;99935.84;5433364;32;35034;-72
2023/04/23 13:10:58;;;;;;;;;;;;;;;25.75;17.78;99936.53;5444255;32;34764;-62
2023/04/23 13:13:59;;;;;;;;;;;;;;;25.42;18.12;99932.09;5441041;32;34683;-70
2023/04/23 13:17:01;;;;;;;;;;;;;;;25.44;18.29;99928.25;5450009;32;35924;-71
2023/04/23 13:20:04;;;;;;;;;;;;;;;25.51;17.91;99923.88;5441478;32;36375;-72
2023/04/23 13:23:07;;;;;;;;;;;;;;;26.23;17.35;99917.78;5450014;32;35257;-64
2023/04/23 13:26:09;;;;;;;;;;;;;;;26.26;17.03;99918.28;5442570;32;34985;-72
2023/04/23 13:29:11;;;;;;;;;;;;;;;25.76;17.82;99905.06;5426179;32;46246;-62
2023/04/23 13:32:15;;;;;;;;;;;;;;;26.01;17.45;99900.50;5430587;32;34415;-71
2023/04/23 13:35:17;;;;;;;;;;;;;;;25.86;17.81;99898.50;5441567;32;34648;-71
2023/04/23 13:38:19;;;;;;;;;;;;;;;25.97;17.36;99891.09;5445648;32;34732;-72
2023/04/23 13:41:20;;;;;;;;;;;;;;;25.34;18.17;99898.81;5427661;32;35297;-63
2023/04/23 13:44:22;;;;;;;;;;;;;;;26.33;17.04;99884.25;5449093;32;34767;-62
2023/04/23 13:47:26;;;;;;;;;;;;;;;25.53;17.97;99891.44;5439871;32;34215;-62
2023/04/23 13:50:28;;;;;;;;;;;;;;;25.91;17.35;99876.47;5429306;32;34990;-64
2023/04/23 13:53:30;;;;;;;;;;;;;;;25.63;17.96;99868.72;5437845;32;35879;-64
2023/04/23 13:56:32;;;;;;;;;;;;;;;25.61;17.85;99875.28;5426475;32;37046;-62
2023/04/23 13:59:34;;;;;;;;;;;;;;;25.14;18.41;99875.94;5434887;32;35034;-71
2023/04/23 14:02:36;;;;;;;;;;;;;;;26.26;17.47;99871.66;5441379;32;34900;-62
2023/04/23 14:05:38;;;;;;;;;;;;;;;25.75;17.76;99853.09;5445514;32;34163;-62
2023/04/23 14:08:40;;;;;;;;;;;;;;;26.20;17.50;99859.72;5440706;32;45391;-70
2023/04/23 14:11:42;;;;;;;;;;;;;;;25.49;17.93;99871.25;5416228;32;946339;-63
2023/04/23 14:14:44;;;;;;;;;;;;;;;25.16;18.57;99865.84;5445427;32;33730;-70
2023/04/23 14:17:46;;;;;;;;;;;;;;;24.62;19.06;99865.38;5440375;32;34886;-71
2023/04/23 14:20:48;;;;;;;;;;;;;;;25.56;18.12;99864.16;5449132;32;35288;-62
2023/04/23 14:23:50;;;;;;;;;;;;;;;24.98;18.58;99855.19;5441028;32;35097;-71
2023/04/23 14:26:52;;;;;;;;;;;;;;;25.60;18.25;99852.06;5434368;32;34605;-73
2023/04/23 14:29:54;;;;;;;;;;;;;;;25.47;18.01;99843.69;5428241;32;34741;-70
2023/04/23 14:32:56;;;;;;;;;;;;;;;24.70;18.91;99854.63;5435303;32;34783;-70
2023/04/23 14:35:58;;;;;;;;;;;;;;;24.17;19.26;99845.00;5446228;32;34836;-64
2023/04/23 14:39:03;;;;;;;;;;;;;;;24.28;19.20;99842.03;5426149;32;35135;-71
2023/04/23 14:42:05;;;;;;;;;;;;;;;25.32;18.08;99844.34;5448718;32;34483;-72
2023/04/23 14:45:07;;;;;;;;;;;;;;;25.00;18.42;99830.84;5440702;32;34921;-61
2023/04/23 14:48:10;;;;;;;;;;;;;;;25.60;17.97;99827.84;5446892;32;34919;-63
2023/04/23 14:51:11;;;;;;;;;;;;;;;25.45;18.17;99841.16;5435631;32;45569;-63
2023/04/23 14:54:13;;;;;;;;;;;;;;;25.81;17.81;99828.19;5442869;32;35827;-71
2023/04/23 14:57:15;;;;;;;;;;;;;;;25.24;18.57;99830.03;5441161;32;36507;-70
2023/04/23 15:00:17;;;;;;;;;;;;;;;24.79;18.61;99832.13;5440730;32;35044;-71
2023/04/23 15:03:19;;;;;;;;;;;;;;;24.77;18.78;99820.72;5442682;32;35677;-69
2023/04/23 15:06:22;;;;;;;;;;;;;;;25.14;18.36;99830.22;5422937;32;34419;-71
2023/04/23 15:09:23;;;;;;;;;;;;;;;25.35;18.06;99829.72;5444163;32;34767;-64
2023/04/23 15:12:45;;;;;;;;;;;;;;;25.28;18.25;99824.19;5424782;32;34689;-70
2023/04/23 15:15:52;;;;;;;;;;;;;;;24.87;18.64;99823.28;5440224;32;45113;-64
2023/04/23 15:18:55;;;;;;;;;;;;;;;24.78;19.00;99829.62;5434430;32;35324;-72
2023/04/23 15:21:57;;;;;;;;;;;;;;;25.02;18.61;99826.97;5439555;32;35743;-63
2023/04/23 15:24:59;;;;;;;;;;;;;;;24.50;19.15;99824.53;5448584;32;34761;-62
2023/04/23 15:28:01;;;;;;;;;;;;;;;24.99;18.77;99827.34;5439845;32;34721;-71
2023/04/23 15:31:03;;;;;;;;;;;;;;;24.67;18.94;99822.75;5426096;32;34859;-70
2023/04/23 15:34:07;;;;;;;;;;;;;;;24.43;19.29;99823.50;5441493;32;37387;-63
2023/04/23 15:37:10;;;;;;;;;;;;;;;23.75;20.09;99816.25;5439496;32;44607;-68
2023/04/23 15:40:12;;;;;;;;;;;;;;;23.70;20.24;99813.22;5418506;32;34986;-70